sensor_id;sensor_type;location;lat;lon;timestamp;P1;durP1;ratioP1;P2;durP2;ratioP2
16262;SDS011;8239;48.594;8.598;2023-12-20T00:01:36;0.60;;;0.60;;
16262;SDS011;8239;48.594;8.598;2023-12-20T00:04:03;0.77;;;0.77;;
16262;SDS011;8239;48.594;8.598;2023-12-20T00:06:30;1.13;;;0.60;;
16262;SDS011;8239;48.594;8.598;2023-12-20T00:08:57;0.70;;;0.70;;
16262;SDS011;8239;48.594;8.598;2023-12-20T00:11:24;0.60;;;0.60;;
16262;SDS011;8239;48.594;8.598;2023-12-20T00:13:52;0.67;;;0.67;;
16262;SDS011;8239;48.594;8.598;2023-12-20T00:16:19;0.40;;;0.40;;
16262;SDS011;8239;48.594;8.598;2023-12-20T00:18:46;2.87;;;0.87;;
16262;SDS011;8239;48.594;8.598;2023-12-20T00:21:13;0.50;;;0.50;;
16262;SDS011;8239;48.594;8.598;2023-12-20T00:23:39;0.70;;;0.70;;
16262;SDS011;8239;48.594;8.598;2023-12-20T00:26:06;0.67;;;0.60;;
16262;SDS011;8239;48.594;8.598;2023-12-20T00:28:33;0.90;;;0.90;;
16262;SDS011;8239;48.594;8.598;2023-12-20T00:31:01;0.70;;;0.70;;
16262;SDS011;8239;48.594;8.598;2023-12-20T00:33:29;0.60;;;0.60;;
16262;SDS011;8239;48.594;8.598;2023-12-20T00:35:56;0.63;;;0.60;;
16262;SDS011;8239;48.594;8.598;2023-12-20T00:38:23;0.60;;;0.60;;
16262;SDS011;8239;48.594;8.598;2023-12-20T00:40:50;0.67;;;0.67;;
16262;SDS011;8239;48.594;8.598;2023-12-20T00:43:17;0.60;;;0.60;;
16262;SDS011;8239;48.594;8.598;2023-12-20T00:45:44;1.70;;;0.73;;
16262;SDS011;8239;48.594;8.598;2023-12-20T00:48:13;0.60;;;0.60;;
16262;SDS011;8239;48.594;8.598;2023-12-20T00:50:40;0.50;;;0.50;;
16262;SDS011;8239;48.594;8.598;2023-12-20T00:53:06;0.60;;;0.60;;
16262;SDS011;8239;48.594;8.598;2023-12-20T00:55:33;0.40;;;0.40;;
16262;SDS011;8239;48.594;8.598;2023-12-20T00:58:00;0.50;;;0.50;;
16262;SDS011;8239;48.594;8.598;2023-12-20T01:00:26;0.70;;;0.70;;
16262;SDS011;8239;48.594;8.598;2023-12-20T01:02:53;1.40;;;0.50;;
16262;SDS011;8239;48.594;8.598;2023-12-20T01:05:20;0.50;;;0.50;;
16262;SDS011;8239;48.594;8.598;2023-12-20T01:07:48;0.50;;;0.50;;
16262;SDS011;8239;48.594;8.598;2023-12-20T01:10:15;0.40;;;0.40;;
16262;SDS011;8239;48.594;8.598;2023-12-20T01:12:42;0.30;;;0.30;;
16262;SDS011;8239;48.594;8.598;2023-12-20T01:15:09;0.40;;;0.40;;
16262;SDS011;8239;48.594;8.598;2023-12-20T01:17:36;0.50;;;0.50;;
16262;SDS011;8239;48.594;8.598;2023-12-20T01:20:03;0.40;;;0.40;;
16262;SDS011;8239;48.594;8.598;2023-12-20T01:22:32;0.50;;;0.50;;
16262;SDS011;8239;48.594;8.598;2023-12-20T01:25:00;0.20;;;0.20;;
16262;SDS011;8239;48.594;8.598;2023-12-20T01:27:28;0.30;;;0.30;;
16262;SDS011;8239;48.594;8.598;2023-12-20T01:29:56;0.20;;;0.20;;
16262;SDS011;8239;48.594;8.598;2023-12-20T01:32:23;0.20;;;0.20;;
16262;SDS011;8239;48.594;8.598;2023-12-20T01:34:50;0.10;;;0.10;;
16262;SDS011;8239;48.594;8.598;2023-12-20T01:37:16;0.73;;;0.30;;
16262;SDS011;8239;48.594;8.598;2023-12-20T01:39:45;0.30;;;0.30;;
16262;SDS011;8239;48.594;8.598;2023-12-20T01:42:12;0.10;;;0.10;;
16262;SDS011;8239;48.594;8.598;2023-12-20T01:44:39;0.17;;;0.17;;
16262;SDS011;8239;48.594;8.598;2023-12-20T01:47:06;0.03;;;0.00;;
16262;SDS011;8239;48.594;8.598;2023-12-20T01:49:35;0.17;;;0.17;;
16262;SDS011;8239;48.594;8.598;2023-12-20T01:52:02;0.13;;;0.13;;
16262;SDS011;8239;48.594;8.598;2023-12-20T01:54:29;0.10;;;0.10;;
16262;SDS011;8239;48.594;8.598;2023-12-20T01:56:58;0.17;;;0.17;;
16262;SDS011;8239;48.594;8.598;2023-12-20T01:59:26;0.20;;;0.20;;
16262;SDS011;8239;48.594;8.598;2023-12-20T02:01:54;0.17;;;0.10;;
16262;SDS011;8239;48.594;8.598;2023-12-20T02:04:22;0.10;;;0.10;;
16262;SDS011;8239;48.594;8.598;2023-12-20T02:06:49;0.20;;;0.10;;
16262;SDS011;8239;48.594;8.598;2023-12-20T02:09:19;0.20;;;0.20;;
16262;SDS011;8239;48.594;8.598;2023-12-20T02:11:46;0.17;;;0.17;;
16262;SDS011;8239;48.594;8.598;2023-12-20T02:14:14;0.10;;;0.10;;
16262;SDS011;8239;48.594;8.598;2023-12-20T02:16:41;0.17;;;0.10;;
16262;SDS011;8239;48.594;8.598;2023-12-20T02:19:09;0.10;;;0.10;;
16262;SDS011;8239;48.594;8.598;2023-12-20T02:21:41;0.10;;;0.10;;
16262;SDS011;8239;48.594;8.598;2023-12-20T02:24:08;0.10;;;0.10;;
16262;SDS011;8239;48.594;8.598;2023-12-20T02:26:34;0.20;;;0.20;;
16262;SDS011;8239;48.594;8.598;2023-12-20T02:29:02;0.10;;;0.10;;
16262;SDS011;8239;48.594;8.598;2023-12-20T02:31:28;0.10;;;0.10;;
16262;SDS011;8239;48.594;8.598;2023-12-20T02:33:55;0.10;;;0.10;;
16262;SDS011;8239;48.594;8.598;2023-12-20T02:36:22;0.17;;;0.17;;
16262;SDS011;8239;48.594;8.598;2023-12-20T02:38:50;0.10;;;0.10;;
16262;SDS011;8239;48.594;8.598;2023-12-20T02:41:17;0.63;;;0.10;;
16262;SDS011;8239;48.594;8.598;2023-12-20T02:43:44;0.10;;;0.10;;
16262;SDS011;8239;48.594;8.598;2023-12-20T02:46:11;0.00;;;0.00;;
16262;SDS011;8239;48.594;8.598;2023-12-20T02:48:39;0.10;;;0.10;;
16262;SDS011;8239;48.594;8.598;2023-12-20T02:51:06;0.10;;;0.10;;
16262;SDS011;8239;48.594;8.598;2023-12-20T02:53:33;0.10;;;0.10;;
16262;SDS011;8239;48.594;8.598;2023-12-20T02:56:01;0.10;;;0.10;;
16262;SDS011;8239;48.594;8.598;2023-12-20T02:58:29;0.20;;;0.20;;
16262;SDS011;8239;48.594;8.598;2023-12-20T03:00:56;0.23;;;0.10;;
16262;SDS011;8239;48.594;8.598;2023-12-20T03:03:22;0.03;;;0.03;;
16262;SDS011;8239;48.594;8.598;2023-12-20T03:05:49;0.07;;;0.07;;
16262;SDS011;8239;48.594;8.598;2023-12-20T03:08:16;0.50;;;0.20;;
16262;SDS011;8239;48.594;8.598;2023-12-20T03:10:43;0.70;;;0.17;;
16262;SDS011;8239;48.594;8.598;2023-12-20T03:13:11;0.13;;;0.10;;
16262;SDS011;8239;48.594;8.598;2023-12-20T03:15:38;0.17;;;0.17;;
16262;SDS011;8239;48.594;8.598;2023-12-20T03:18:05;0.10;;;0.10;;
16262;SDS011;8239;48.594;8.598;2023-12-20T03:20:32;0.63;;;0.07;;
16262;SDS011;8239;48.594;8.598;2023-12-20T03:22:59;0.10;;;0.10;;
16262;SDS011;8239;48.594;8.598;2023-12-20T03:25:26;0.43;;;0.10;;
16262;SDS011;8239;48.594;8.598;2023-12-20T03:27:53;0.10;;;0.10;;
16262;SDS011;8239;48.594;8.598;2023-12-20T03:30:21;0.10;;;0.10;;
16262;SDS011;8239;48.594;8.598;2023-12-20T03:32:48;0.00;;;0.00;;
16262;SDS011;8239;48.594;8.598;2023-12-20T03:35:15;0.10;;;0.10;;
16262;SDS011;8239;48.594;8.598;2023-12-20T03:37:42;0.10;;;0.10;;
16262;SDS011;8239;48.594;8.598;2023-12-20T03:40:09;0.20;;;0.10;;
16262;SDS011;8239;48.594;8.598;2023-12-20T03:42:36;0.10;;;0.10;;
16262;SDS011;8239;48.594;8.598;2023-12-20T03:45:03;0.27;;;0.27;;
16262;SDS011;8239;48.594;8.598;2023-12-20T03:47:32;0.10;;;0.10;;
16262;SDS011;8239;48.594;8.598;2023-12-20T03:49:59;0.10;;;0.00;;
16262;SDS011;8239;48.594;8.598;2023-12-20T03:52:27;0.10;;;0.10;;
16262;SDS011;8239;48.594;8.598;2023-12-20T03:54:54;0.00;;;0.00;;
16262;SDS011;8239;48.594;8.598;2023-12-20T03:57:21;0.20;;;0.20;;
16262;SDS011;8239;48.594;8.598;2023-12-20T03:59:47;0.30;;;0.10;;
16262;SDS011;8239;48.594;8.598;2023-12-20T04:02:14;0.10;;;0.10;;
16262;SDS011;8239;48.594;8.598;2023-12-20T04:04:44;0.20;;;0.13;;
16262;SDS011;8239;48.594;8.598;2023-12-20T04:07:11;0.00;;;0.00;;
16262;SDS011;8239;48.594;8.598;2023-12-20T04:09:38;0.10;;;0.10;;
16262;SDS011;8239;48.594;8.598;2023-12-20T04:12:06;0.10;;;0.10;;
16262;SDS011;8239;48.594;8.598;2023-12-20T04:14:33;0.20;;;0.10;;
16262;SDS011;8239;48.594;8.598;2023-12-20T04:17:00;0.10;;;0.10;;
16262;SDS011;8239;48.594;8.598;2023-12-20T04:19:27;0.00;;;0.00;;
16262;SDS011;8239;48.594;8.598;2023-12-20T04:21:56;0.10;;;0.10;;
16262;SDS011;8239;48.594;8.598;2023-12-20T04:24:23;0.00;;;0.00;;
16262;SDS011;8239;48.594;8.598;2023-12-20T04:26:50;0.10;;;0.10;;
16262;SDS011;8239;48.594;8.598;2023-12-20T04:29:17;0.00;;;0.00;;
16262;SDS011;8239;48.594;8.598;2023-12-20T04:31:44;0.00;;;0.00;;
16262;SDS011;8239;48.594;8.598;2023-12-20T04:34:10;0.20;;;0.20;;
16262;SDS011;8239;48.594;8.598;2023-12-20T04:36:37;0.00;;;0.00;;
16262;SDS011;8239;48.594;8.598;2023-12-20T04:39:06;0.10;;;0.10;;
16262;SDS011;8239;48.594;8.598;2023-12-20T04:41:32;0.10;;;0.10;;
16262;SDS011;8239;48.594;8.598;2023-12-20T04:43:59;0.00;;;0.00;;
16262;SDS011;8239;48.594;8.598;2023-12-20T04:46:27;0.10;;;0.10;;
16262;SDS011;8239;48.594;8.598;2023-12-20T04:48:54;0.47;;;0.20;;
16262;SDS011;8239;48.594;8.598;2023-12-20T04:51:21;0.53;;;0.10;;
16262;SDS011;8239;48.594;8.598;2023-12-20T04:53:48;0.10;;;0.10;;
16262;SDS011;8239;48.594;8.598;2023-12-20T04:56:16;0.00;;;0.00;;
16262;SDS011;8239;48.594;8.598;2023-12-20T04:58:43;0.10;;;0.10;;
16262;SDS011;8239;48.594;8.598;2023-12-20T05:01:10;0.00;;;0.00;;
16262;SDS011;8239;48.594;8.598;2023-12-20T05:03:37;0.10;;;0.10;;
16262;SDS011;8239;48.594;8.598;2023-12-20T05:06:04;0.00;;;0.00;;
16262;SDS011;8239;48.594;8.598;2023-12-20T05:08:31;0.10;;;0.10;;
16262;SDS011;8239;48.594;8.598;2023-12-20T05:10:58;0.00;;;0.00;;
16262;SDS011;8239;48.594;8.598;2023-12-20T05:13:26;0.10;;;0.10;;
16262;SDS011;8239;48.594;8.598;2023-12-20T05:15:53;0.00;;;0.00;;
16262;SDS011;8239;48.594;8.598;2023-12-20T05:18:20;0.00;;;0.00;;
16262;SDS011;8239;48.594;8.598;2023-12-20T05:20:48;0.10;;;0.10;;
16262;SDS011;8239;48.594;8.598;2023-12-20T05:23:15;0.10;;;0.10;;
16262;SDS011;8239;48.594;8.598;2023-12-20T05:25:42;0.10;;;0.10;;
16262;SDS011;8239;48.594;8.598;2023-12-20T05:28:09;0.00;;;0.00;;
16262;SDS011;8239;48.594;8.598;2023-12-20T05:30:37;0.10;;;0.10;;
16262;SDS011;8239;48.594;8.598;2023-12-20T05:33:04;0.10;;;0.10;;
16262;SDS011;8239;48.594;8.598;2023-12-20T05:35:31;0.10;;;0.10;;
16262;SDS011;8239;48.594;8.598;2023-12-20T05:37:58;0.10;;;0.00;;
16262;SDS011;8239;48.594;8.598;2023-12-20T05:40:25;0.00;;;0.00;;
16262;SDS011;8239;48.594;8.598;2023-12-20T05:42:51;0.10;;;0.10;;
16262;SDS011;8239;48.594;8.598;2023-12-20T05:45:19;0.23;;;0.10;;
16262;SDS011;8239;48.594;8.598;2023-12-20T05:47:47;0.20;;;0.20;;
16262;SDS011;8239;48.594;8.598;2023-12-20T05:50:14;0.10;;;0.10;;
16262;SDS011;8239;48.594;8.598;2023-12-20T05:52:41;0.00;;;0.00;;
16262;SDS011;8239;48.594;8.598;2023-12-20T05:55:08;0.10;;;0.10;;
16262;SDS011;8239;48.594;8.598;2023-12-20T05:57:35;0.20;;;0.20;;
16262;SDS011;8239;48.594;8.598;2023-12-20T06:00:02;0.30;;;0.30;;
16262;SDS011;8239;48.594;8.598;2023-12-20T06:02:30;0.23;;;0.23;;
16262;SDS011;8239;48.594;8.598;2023-12-20T06:04:59;0.30;;;0.23;;
16262;SDS011;8239;48.594;8.598;2023-12-20T06:07:26;0.73;;;0.60;;
16262;SDS011;8239;48.594;8.598;2023-12-20T06:09:53;0.30;;;0.30;;
16262;SDS011;8239;48.594;8.598;2023-12-20T06:12:20;0.93;;;0.40;;
16262;SDS011;8239;48.594;8.598;2023-12-20T06:14:47;0.57;;;0.53;;
16262;SDS011;8239;48.594;8.598;2023-12-20T06:17:13;0.90;;;0.90;;
16262;SDS011;8239;48.594;8.598;2023-12-20T06:19:40;1.47;;;1.37;;
16262;SDS011;8239;48.594;8.598;2023-12-20T06:22:11;1.53;;;1.07;;
16262;SDS011;8239;48.594;8.598;2023-12-20T06:24:38;1.03;;;1.03;;
16262;SDS011;8239;48.594;8.598;2023-12-20T06:27:05;1.40;;;1.23;;
16262;SDS011;8239;48.594;8.598;2023-12-20T06:29:32;1.50;;;1.40;;
16262;SDS011;8239;48.594;8.598;2023-12-20T06:31:59;0.40;;;0.40;;
16262;SDS011;8239;48.594;8.598;2023-12-20T06:34:26;0.77;;;0.70;;
16262;SDS011;8239;48.594;8.598;2023-12-20T06:36:53;0.20;;;0.20;;
16262;SDS011;8239;48.594;8.598;2023-12-20T06:39:23;0.20;;;0.20;;
16262;SDS011;8239;48.594;8.598;2023-12-20T06:41:50;0.20;;;0.20;;
16262;SDS011;8239;48.594;8.598;2023-12-20T06:44:17;0.20;;;0.20;;
16262;SDS011;8239;48.594;8.598;2023-12-20T06:46:44;0.67;;;0.20;;
16262;SDS011;8239;48.594;8.598;2023-12-20T06:49:11;0.10;;;0.10;;
16262;SDS011;8239;48.594;8.598;2023-12-20T06:51:38;0.10;;;0.10;;
16262;SDS011;8239;48.594;8.598;2023-12-20T06:54:05;0.20;;;0.20;;
16262;SDS011;8239;48.594;8.598;2023-12-20T06:56:33;0.20;;;0.20;;
16262;SDS011;8239;48.594;8.598;2023-12-20T06:59:00;0.30;;;0.30;;
16262;SDS011;8239;48.594;8.598;2023-12-20T07:01:27;0.50;;;0.40;;
16262;SDS011;8239;48.594;8.598;2023-12-20T07:03:54;0.40;;;0.40;;
16262;SDS011;8239;48.594;8.598;2023-12-20T07:06:21;0.40;;;0.40;;
16262;SDS011;8239;48.594;8.598;2023-12-20T07:08:48;0.83;;;0.60;;
16262;SDS011;8239;48.594;8.598;2023-12-20T07:11:14;1.00;;;1.00;;
16262;SDS011;8239;48.594;8.598;2023-12-20T07:13:43;0.87;;;0.87;;
16262;SDS011;8239;48.594;8.598;2023-12-20T07:16:10;2.27;;;0.90;;
16262;SDS011;8239;48.594;8.598;2023-12-20T07:18:37;0.90;;;0.90;;
16262;SDS011;8239;48.594;8.598;2023-12-20T07:21:04;0.80;;;0.80;;
16262;SDS011;8239;48.594;8.598;2023-12-20T07:23:33;0.97;;;0.97;;
16262;SDS011;8239;48.594;8.598;2023-12-20T07:25:59;1.30;;;1.20;;
16262;SDS011;8239;48.594;8.598;2023-12-20T07:28:26;1.37;;;1.20;;
16262;SDS011;8239;48.594;8.598;2023-12-20T07:30:55;1.10;;;1.10;;
16262;SDS011;8239;48.594;8.598;2023-12-20T07:33:22;0.77;;;0.60;;
16262;SDS011;8239;48.594;8.598;2023-12-20T07:35:48;0.60;;;0.60;;
16262;SDS011;8239;48.594;8.598;2023-12-20T07:38:16;0.60;;;0.60;;
16262;SDS011;8239;48.594;8.598;2023-12-20T07:40:43;0.90;;;0.67;;
16262;SDS011;8239;48.594;8.598;2023-12-20T07:43:10;1.20;;;1.20;;
16262;SDS011;8239;48.594;8.598;2023-12-20T07:45:37;0.83;;;0.83;;
16262;SDS011;8239;48.594;8.598;2023-12-20T07:48:06;1.63;;;1.20;;
16262;SDS011;8239;48.594;8.598;2023-12-20T07:50:33;1.50;;;1.10;;
16262;SDS011;8239;48.594;8.598;2023-12-20T07:53:02;1.57;;;1.10;;
16262;SDS011;8239;48.594;8.598;2023-12-20T07:55:29;1.17;;;1.10;;
16262;SDS011;8239;48.594;8.598;2023-12-20T07:57:57;1.27;;;1.00;;
16262;SDS011;8239;48.594;8.598;2023-12-20T08:00:24;1.10;;;1.00;;
16262;SDS011;8239;48.594;8.598;2023-12-20T08:02:51;1.33;;;1.23;;
16262;SDS011;8239;48.594;8.598;2023-12-20T08:05:19;1.20;;;1.10;;
16262;SDS011;8239;48.594;8.598;2023-12-20T08:07:46;1.40;;;1.30;;
16262;SDS011;8239;48.594;8.598;2023-12-20T08:10:13;1.87;;;1.40;;
16262;SDS011;8239;48.594;8.598;2023-12-20T08:12:40;2.33;;;1.80;;
16262;SDS011;8239;48.594;8.598;2023-12-20T08:15:07;2.63;;;1.80;;
16262;SDS011;8239;48.594;8.598;2023-12-20T08:17:34;1.13;;;1.10;;
16262;SDS011;8239;48.594;8.598;2023-12-20T08:20:04;0.80;;;0.80;;
16262;SDS011;8239;48.594;8.598;2023-12-20T08:22:33;2.20;;;1.70;;
16262;SDS011;8239;48.594;8.598;2023-12-20T08:25:00;2.30;;;2.10;;
16262;SDS011;8239;48.594;8.598;2023-12-20T08:27:27;1.80;;;1.20;;
16262;SDS011;8239;48.594;8.598;2023-12-20T08:29:53;1.13;;;1.07;;
16262;SDS011;8239;48.594;8.598;2023-12-20T08:32:20;1.13;;;0.80;;
16262;SDS011;8239;48.594;8.598;2023-12-20T08:34:47;1.00;;;0.90;;
16262;SDS011;8239;48.594;8.598;2023-12-20T08:37:14;0.90;;;0.90;;
16262;SDS011;8239;48.594;8.598;2023-12-20T08:39:43;2.43;;;1.70;;
16262;SDS011;8239;48.594;8.598;2023-12-20T08:42:10;0.90;;;0.90;;
16262;SDS011;8239;48.594;8.598;2023-12-20T08:44:36;1.10;;;0.90;;
16262;SDS011;8239;48.594;8.598;2023-12-20T08:47:03;1.93;;;1.10;;
16262;SDS011;8239;48.594;8.598;2023-12-20T08:49:31;1.60;;;1.10;;
16262;SDS011;8239;48.594;8.598;2023-12-20T08:52:00;1.20;;;1.03;;
16262;SDS011;8239;48.594;8.598;2023-12-20T08:54:27;1.50;;;1.00;;
16262;SDS011;8239;48.594;8.598;2023-12-20T08:56:57;1.90;;;1.20;;
16262;SDS011;8239;48.594;8.598;2023-12-20T08:59:24;1.97;;;1.10;;
16262;SDS011;8239;48.594;8.598;2023-12-20T09:01:51;2.50;;;1.10;;
16262;SDS011;8239;48.594;8.598;2023-12-20T09:04:19;2.17;;;0.90;;
16262;SDS011;8239;48.594;8.598;2023-12-20T09:06:47;1.00;;;0.90;;
16262;SDS011;8239;48.594;8.598;2023-12-20T09:09:13;1.77;;;0.97;;
16262;SDS011;8239;48.594;8.598;2023-12-20T09:11:40;2.07;;;1.33;;
16262;SDS011;8239;48.594;8.598;2023-12-20T09:14:09;2.47;;;1.87;;
16262;SDS011;8239;48.594;8.598;2023-12-20T09:16:36;1.57;;;1.00;;
16262;SDS011;8239;48.594;8.598;2023-12-20T09:19:03;1.93;;;1.03;;
16262;SDS011;8239;48.594;8.598;2023-12-20T09:21:30;2.20;;;1.00;;
16262;SDS011;8239;48.594;8.598;2023-12-20T09:23:57;1.42;;;0.90;;
16262;SDS011;8239;48.594;8.598;2023-12-20T09:26:24;1.10;;;0.80;;
16262;SDS011;8239;48.594;8.598;2023-12-20T09:28:50;1.20;;;0.80;;
16262;SDS011;8239;48.594;8.598;2023-12-20T09:31:19;1.63;;;0.88;;
16262;SDS011;8239;48.594;8.598;2023-12-20T09:33:45;3.40;;;1.30;;
16262;SDS011;8239;48.594;8.598;2023-12-20T09:36:12;1.63;;;0.80;;
16262;SDS011;8239;48.594;8.598;2023-12-20T09:38:39;1.50;;;0.90;;
16262;SDS011;8239;48.594;8.598;2023-12-20T09:41:07;2.05;;;1.08;;
16262;SDS011;8239;48.594;8.598;2023-12-20T09:43:34;2.20;;;1.10;;
16262;SDS011;8239;48.594;8.598;2023-12-20T09:46:05;1.70;;;1.00;;
16262;SDS011;8239;48.594;8.598;2023-12-20T09:48:34;3.23;;;1.07;;
16262;SDS011;8239;48.594;8.598;2023-12-20T09:51:03;2.00;;;1.10;;
16262;SDS011;8239;48.594;8.598;2023-12-20T09:53:30;3.03;;;1.03;;
16262;SDS011;8239;48.594;8.598;2023-12-20T09:56:03;1.63;;;1.00;;
16262;SDS011;8239;48.594;8.598;2023-12-20T09:58:32;2.27;;;0.90;;
16262;SDS011;8239;48.594;8.598;2023-12-20T10:00:59;2.03;;;0.70;;
16262;SDS011;8239;48.594;8.598;2023-12-20T10:03:28;1.93;;;0.87;;
16262;SDS011;8239;48.594;8.598;2023-12-20T10:05:57;2.57;;;1.03;;
16262;SDS011;8239;48.594;8.598;2023-12-20T10:08:26;3.03;;;1.00;;
16262;SDS011;8239;48.594;8.598;2023-12-20T10:10:55;1.80;;;0.87;;
16262;SDS011;8239;48.594;8.598;2023-12-20T10:13:27;3.07;;;1.20;;
16262;SDS011;8239;48.594;8.598;2023-12-20T10:15:54;2.77;;;0.90;;
16262;SDS011;8239;48.594;8.598;2023-12-20T10:18:22;3.35;;;0.88;;
16262;SDS011;8239;48.594;8.598;2023-12-20T10:20:49;2.72;;;0.90;;
16262;SDS011;8239;48.594;8.598;2023-12-20T10:23:17;1.15;;;0.85;;
16262;SDS011;8239;48.594;8.598;2023-12-20T10:25:49;2.80;;;1.00;;
16262;SDS011;8239;48.594;8.598;2023-12-20T10:28:23;2.22;;;0.85;;
16262;SDS011;8239;48.594;8.598;2023-12-20T10:30:52;1.90;;;0.98;;
16262;SDS011;8239;48.594;8.598;2023-12-20T10:33:23;1.27;;;0.70;;
16262;SDS011;8239;48.594;8.598;2023-12-20T10:35:51;2.13;;;0.80;;
16262;SDS011;8239;48.594;8.598;2023-12-20T10:38:20;1.27;;;0.93;;
16262;SDS011;8239;48.594;8.598;2023-12-20T10:40:48;2.38;;;1.02;;
16262;SDS011;8239;48.594;8.598;2023-12-20T10:43:18;1.50;;;1.00;;
16262;SDS011;8239;48.594;8.598;2023-12-20T10:45:46;3.00;;;1.17;;
16262;SDS011;8239;48.594;8.598;2023-12-20T10:48:13;2.20;;;0.90;;
16262;SDS011;8239;48.594;8.598;2023-12-20T10:50:40;2.10;;;1.00;;
16262;SDS011;8239;48.594;8.598;2023-12-20T10:53:08;2.17;;;0.80;;
16262;SDS011;8239;48.594;8.598;2023-12-20T10:55:36;2.43;;;1.00;;
16262;SDS011;8239;48.594;8.598;2023-12-20T10:58:06;1.60;;;1.10;;
16262;SDS011;8239;48.594;8.598;2023-12-20T11:00:35;1.10;;;0.90;;
16262;SDS011;8239;48.594;8.598;2023-12-20T11:03:06;1.87;;;0.80;;
16262;SDS011;8239;48.594;8.598;2023-12-20T11:05:36;2.03;;;1.00;;
16262;SDS011;8239;48.594;8.598;2023-12-20T11:08:10;2.80;;;1.00;;
16262;SDS011;8239;48.594;8.598;2023-12-20T11:10:47;2.50;;;0.90;;
16262;SDS011;8239;48.594;8.598;2023-12-20T11:13:20;2.60;;;0.83;;
16262;SDS011;8239;48.594;8.598;2023-12-20T11:15:49;4.13;;;1.00;;
16262;SDS011;8239;48.594;8.598;2023-12-20T11:18:16;0.90;;;0.80;;
16262;SDS011;8239;48.594;8.598;2023-12-20T11:20:43;1.23;;;0.80;;
16262;SDS011;8239;48.594;8.598;2023-12-20T11:23:10;1.47;;;0.73;;
16262;SDS011;8239;48.594;8.598;2023-12-20T11:25:49;3.20;;;1.13;;
16262;SDS011;8239;48.594;8.598;2023-12-20T11:28:20;3.17;;;1.10;;
16262;SDS011;8239;48.594;8.598;2023-12-20T11:30:51;3.60;;;1.00;;
16262;SDS011;8239;48.594;8.598;2023-12-20T11:33:21;2.60;;;1.17;;
16262;SDS011;8239;48.594;8.598;2023-12-20T11:35:49;2.27;;;0.83;;
16262;SDS011;8239;48.594;8.598;2023-12-20T11:38:16;3.40;;;1.30;;
16262;SDS011;8239;48.594;8.598;2023-12-20T11:40:47;2.50;;;0.97;;
16262;SDS011;8239;48.594;8.598;2023-12-20T11:43:29;3.30;;;1.20;;
16262;SDS011;8239;48.594;8.598;2023-12-20T11:46:02;2.03;;;0.97;;
16262;SDS011;8239;48.594;8.598;2023-12-20T11:48:30;4.43;;;1.23;;
16262;SDS011;8239;48.594;8.598;2023-12-20T11:50:58;3.07;;;1.30;;
16262;SDS011;8239;48.594;8.598;2023-12-20T11:53:28;3.13;;;1.00;;
16262;SDS011;8239;48.594;8.598;2023-12-20T11:55:57;3.63;;;1.37;;
16262;SDS011;8239;48.594;8.598;2023-12-20T11:58:24;2.30;;;0.60;;
16262;SDS011;8239;48.594;8.598;2023-12-20T12:00:52;3.37;;;1.07;;
16262;SDS011;8239;48.594;8.598;2023-12-20T12:03:19;2.57;;;1.30;;
16262;SDS011;8239;48.594;8.598;2023-12-20T12:05:46;3.57;;;1.40;;
16262;SDS011;8239;48.594;8.598;2023-12-20T12:08:13;2.67;;;1.07;;
16262;SDS011;8239;48.594;8.598;2023-12-20T12:10:40;2.60;;;1.00;;
16262;SDS011;8239;48.594;8.598;2023-12-20T12:13:09;4.40;;;1.47;;
16262;SDS011;8239;48.594;8.598;2023-12-20T12:15:36;3.83;;;1.20;;
16262;SDS011;8239;48.594;8.598;2023-12-20T12:18:04;3.33;;;1.10;;
16262;SDS011;8239;48.594;8.598;2023-12-20T12:20:31;3.90;;;0.90;;
16262;SDS011;8239;48.594;8.598;2023-12-20T12:22:58;3.27;;;1.33;;
16262;SDS011;8239;48.594;8.598;2023-12-20T12:25:26;1.60;;;0.80;;
16262;SDS011;8239;48.594;8.598;2023-12-20T12:27:55;2.97;;;1.00;;
16262;SDS011;8239;48.594;8.598;2023-12-20T12:30:23;3.07;;;0.93;;
16262;SDS011;8239;48.594;8.598;2023-12-20T12:32:50;4.27;;;1.10;;
16262;SDS011;8239;48.594;8.598;2023-12-20T12:35:18;2.83;;;0.90;;
16262;SDS011;8239;48.594;8.598;2023-12-20T12:37:45;2.10;;;0.77;;
16262;SDS011;8239;48.594;8.598;2023-12-20T12:40:12;4.67;;;1.20;;
16262;SDS011;8239;48.594;8.598;2023-12-20T12:42:41;4.40;;;1.13;;
16262;SDS011;8239;48.594;8.598;2023-12-20T12:45:09;1.80;;;1.10;;
16262;SDS011;8239;48.594;8.598;2023-12-20T12:47:38;4.17;;;1.23;;
16262;SDS011;8239;48.594;8.598;2023-12-20T12:50:06;4.03;;;1.00;;
16262;SDS011;8239;48.594;8.598;2023-12-20T12:52:33;3.20;;;1.10;;
16262;SDS011;8239;48.594;8.598;2023-12-20T12:55:01;2.37;;;1.10;;
16262;SDS011;8239;48.594;8.598;2023-12-20T12:57:28;2.80;;;1.20;;
16262;SDS011;8239;48.594;8.598;2023-12-20T12:59:55;2.20;;;1.10;;
16262;SDS011;8239;48.594;8.598;2023-12-20T13:02:23;2.00;;;1.10;;
16262;SDS011;8239;48.594;8.598;2023-12-20T13:04:52;2.07;;;0.97;;
16262;SDS011;8239;48.594;8.598;2023-12-20T13:07:19;5.67;;;1.30;;
16262;SDS011;8239;48.594;8.598;2023-12-20T13:09:45;2.17;;;1.07;;
16262;SDS011;8239;48.594;8.598;2023-12-20T13:12:12;2.27;;;1.10;;
16262;SDS011;8239;48.594;8.598;2023-12-20T13:14:40;2.40;;;0.93;;
16262;SDS011;8239;48.594;8.598;2023-12-20T13:17:06;2.53;;;1.00;;
16262;SDS011;8239;48.594;8.598;2023-12-20T13:19:33;3.30;;;0.70;;
16262;SDS011;8239;48.594;8.598;2023-12-20T13:22:02;2.77;;;1.00;;
16262;SDS011;8239;48.594;8.598;2023-12-20T13:24:29;3.13;;;1.00;;
16262;SDS011;8239;48.594;8.598;2023-12-20T13:26:57;2.43;;;1.20;;
16262;SDS011;8239;48.594;8.598;2023-12-20T13:29:24;3.13;;;1.00;;
16262;SDS011;8239;48.594;8.598;2023-12-20T13:31:52;0.87;;;0.80;;
16262;SDS011;8239;48.594;8.598;2023-12-20T13:34:19;2.40;;;0.93;;
16262;SDS011;8239;48.594;8.598;2023-12-20T13:36:46;3.97;;;1.13;;
16262;SDS011;8239;48.594;8.598;2023-12-20T13:39:17;2.37;;;0.90;;
16262;SDS011;8239;48.594;8.598;2023-12-20T13:41:44;2.93;;;1.03;;
16262;SDS011;8239;48.594;8.598;2023-12-20T13:44:11;2.17;;;0.93;;
16262;SDS011;8239;48.594;8.598;2023-12-20T13:46:38;1.67;;;0.83;;
16262;SDS011;8239;48.594;8.598;2023-12-20T13:49:06;3.17;;;1.10;;
16262;SDS011;8239;48.594;8.598;2023-12-20T13:51:33;4.03;;;1.20;;
16262;SDS011;8239;48.594;8.598;2023-12-20T13:54:00;3.80;;;0.80;;
16262;SDS011;8239;48.594;8.598;2023-12-20T13:56:29;4.20;;;1.20;;
16262;SDS011;8239;48.594;8.598;2023-12-20T13:58:55;2.17;;;1.20;;
16262;SDS011;8239;48.594;8.598;2023-12-20T14:01:23;3.47;;;1.20;;
16262;SDS011;8239;48.594;8.598;2023-12-20T14:03:50;2.13;;;1.10;;
16262;SDS011;8239;48.594;8.598;2023-12-20T14:06:17;4.00;;;1.00;;
16262;SDS011;8239;48.594;8.598;2023-12-20T14:08:44;3.00;;;1.10;;
16262;SDS011;8239;48.594;8.598;2023-12-20T14:11:11;3.23;;;1.10;;
16262;SDS011;8239;48.594;8.598;2023-12-20T14:13:42;2.47;;;1.17;;
16262;SDS011;8239;48.594;8.598;2023-12-20T14:16:09;4.73;;;1.30;;
16262;SDS011;8239;48.594;8.598;2023-12-20T14:18:37;1.57;;;1.17;;
16262;SDS011;8239;48.594;8.598;2023-12-20T14:21:05;3.07;;;1.17;;
16262;SDS011;8239;48.594;8.598;2023-12-20T14:23:32;2.60;;;1.10;;
16262;SDS011;8239;48.594;8.598;2023-12-20T14:25:59;4.03;;;1.30;;
16262;SDS011;8239;48.594;8.598;2023-12-20T14:28:27;4.73;;;1.40;;
16262;SDS011;8239;48.594;8.598;2023-12-20T14:30:55;2.43;;;1.13;;
16262;SDS011;8239;48.594;8.598;2023-12-20T14:33:23;1.60;;;1.00;;
16262;SDS011;8239;48.594;8.598;2023-12-20T14:35:51;2.87;;;1.10;;
16262;SDS011;8239;48.594;8.598;2023-12-20T14:38:18;2.70;;;1.20;;
16262;SDS011;8239;48.594;8.598;2023-12-20T14:40:45;4.97;;;1.20;;
16262;SDS011;8239;48.594;8.598;2023-12-20T14:43:12;2.27;;;1.13;;
16262;SDS011;8239;48.594;8.598;2023-12-20T14:45:39;3.83;;;1.20;;
16262;SDS011;8239;48.594;8.598;2023-12-20T14:48:07;4.83;;;1.47;;
16262;SDS011;8239;48.594;8.598;2023-12-20T14:50:34;2.33;;;1.03;;
16262;SDS011;8239;48.594;8.598;2023-12-20T14:53:01;3.37;;;1.00;;
16262;SDS011;8239;48.594;8.598;2023-12-20T14:55:28;1.50;;;1.10;;
16262;SDS011;8239;48.594;8.598;2023-12-20T14:57:55;3.33;;;1.17;;
16262;SDS011;8239;48.594;8.598;2023-12-20T15:00:22;2.90;;;1.27;;
16262;SDS011;8239;48.594;8.598;2023-12-20T15:02:49;3.20;;;1.10;;